Time;durP1;ratioP1;P1;durP2;ratioP2;P2;SDS_P1;SDS_P2;PMS_P1;PMS_P2;Temp;Humidity;BMP_temperature;BMP_pressure;BME280_temperature;BME280_humidity;BME280_pressure;Samples;Min_cycle;Max_cycle;Signal;HPM_P1;HPM_P2
2021/08/04 00:01:23;;;;;;;;;;;16.70;99.90;;;;;;5131029;27;20432;-83
2021/08/04 00:03:48;;;;;;;;;;;16.60;99.90;;;;;;5129513;27;19923;-84
2021/08/04 00:06:14;;;;;;;;;;;16.60;99.90;;;;;;5131175;27;20331;-84
2021/08/04 00:08:39;;;;;;;;;;;16.70;99.90;;;;;;5130090;28;19908;-83
2021/08/04 00:11:05;;;;;;;;;;;16.60;99.90;;;;;;5129223;27;19908;-84
2021/08/04 00:13:30;;;;;;;;;;;16.60;99.90;;;;;;5130159;27;19915;-83
2021/08/04 00:15:56;;;;;;;;;;;16.60;99.90;;;;;;5123296;27;19907;-84
2021/08/04 00:18:21;;;;;;;;;;;16.70;99.90;;;;;;5116164;28;19915;-83
2021/08/04 00:20:47;;;;;;;;;;;16.60;99.90;;;;;;5116268;28;19912;-84
2021/08/04 00:23:13;;;;;;;;;;;16.60;99.90;;;;;;5115624;28;19908;-84
2021/08/04 00:25:38;;;;;;;;;;;16.60;99.90;;;;;;5115499;28;20276;-84
2021/08/04 00:28:04;;;;;;;;;;;16.60;99.90;;;;;;5115733;28;19930;-83
2021/08/04 00:30:30;;;;;;;;;;;16.50;99.90;;;;;;5115282;28;19908;-84
2021/08/04 00:32:55;;;;;;;;;;;16.50;99.90;;;;;;5116396;28;19996;-84
2021/08/04 00:35:22;;;;;;;;;;;16.50;99.90;;;;;;5117408;27;19990;-83
2021/08/04 00:37:47;;;;;;;;;;;16.50;99.90;;;;;;5115420;28;19926;-84
2021/08/04 00:40:13;;;;;;;;;;;16.50;99.90;;;;;;5115920;28;19908;-83
2021/08/04 00:42:38;;;;;;;;;;;16.50;99.90;;;;;;5116785;28;19908;-83
2021/08/04 00:45:04;;;;;;;;;;;16.50;99.90;;;;;;5116674;27;19919;-84
2021/08/04 00:47:30;;;;;;;;;;;16.50;99.90;;;;;;5116429;28;19908;-83
2021/08/04 00:49:58;;;;;;;;;;;16.50;99.90;;;;;;5115638;28;20391;-83
2021/08/04 00:52:24;;;;;;;;;;;16.40;99.90;;;;;;5114728;28;20517;-83
2021/08/04 00:54:49;;;;;;;;;;;16.40;99.90;;;;;;5114747;28;19948;-83
2021/08/04 00:57:15;;;;;;;;;;;16.40;99.90;;;;;;5116007;28;19908;-84
2021/08/04 00:59:40;;;;;;;;;;;16.40;99.90;;;;;;5115557;28;20286;-83
2021/08/04 01:02:22;;;;;;;;;;;16.40;99.90;;;;;;5114399;28;19912;-83
2021/08/04 01:04:51;;;;;;;;;;;16.40;99.90;;;;;;5114595;28;19919;-84
2021/08/04 01:07:37;;;;;;;;;;;16.40;99.90;;;;;;5114885;28;19960;-84
2021/08/04 01:10:09;;;;;;;;;;;16.40;99.90;;;;;;5112810;28;20390;-84
2021/08/04 01:12:56;;;;;;;;;;;16.40;99.90;;;;;;5115867;28;19999;-84
2021/08/04 01:15:23;;;;;;;;;;;16.40;99.90;;;;;;5115903;27;19907;-83
2021/08/04 01:17:50;;;;;;;;;;;16.40;99.90;;;;;;5115960;28;19908;-84
2021/08/04 01:20:18;;;;;;;;;;;16.40;99.90;;;;;;5114342;28;19941;-84
2021/08/04 01:22:43;;;;;;;;;;;16.30;99.90;;;;;;5114422;28;19908;-84
2021/08/04 01:25:09;;;;;;;;;;;16.30;99.90;;;;;;5115792;28;20425;-84
2021/08/04 01:27:36;;;;;;;;;;;16.30;99.90;;;;;;5114504;28;19907;-84
2021/08/04 01:30:02;;;;;;;;;;;16.30;99.90;;;;;;5115828;28;19908;-83
2021/08/04 01:32:28;;;;;;;;;;;16.30;99.90;;;;;;5115281;28;19912;-84
2021/08/04 01:34:54;;;;;;;;;;;16.30;99.90;;;;;;5114222;28;19918;-84
2021/08/04 01:37:21;;;;;;;;;;;16.30;99.90;;;;;;5115036;28;20283;-84
2021/08/04 01:39:47;;;;;;;;;;;16.30;99.90;;;;;;5115908;28;20008;-84
2021/08/04 01:42:13;;;;;;;;;;;16.30;99.90;;;;;;5114411;28;19915;-83
2021/08/04 01:44:39;;;;;;;;;;;16.20;99.90;;;;;;5113869;28;19912;-84
2021/08/04 01:47:05;;;;;;;;;;;16.20;99.90;;;;;;5113947;28;19943;-83
2021/08/04 01:49:31;;;;;;;;;;;16.20;99.90;;;;;;5113232;28;20352;-84
2021/08/04 01:51:57;;;;;;;;;;;16.20;99.90;;;;;;5114069;28;19958;-83
2021/08/04 01:54:23;;;;;;;;;;;16.10;99.90;;;;;;5114932;28;20417;-83
2021/08/04 01:56:49;;;;;;;;;;;16.10;99.90;;;;;;5114020;28;19915;-84
2021/08/04 01:59:15;;;;;;;;;;;16.10;99.90;;;;;;5115069;28;19912;-83
2021/08/04 02:01:40;;;;;;;;;;;16.10;99.90;;;;;;5116274;28;20371;-81
2021/08/04 02:04:06;;;;;;;;;;;16.10;99.90;;;;;;5114199;28;19915;-84
2021/08/04 02:06:50;;;;;;;;;;;16.10;99.90;;;;;;5113687;28;20361;-84
2021/08/04 02:09:27;;;;;;;;;;;16.10;99.90;;;;;;5112340;28;19960;-84
2021/08/04 02:12:07;;;;;;;;;;;16.10;99.90;;;;;;5113620;28;19956;-84
2021/08/04 02:14:48;;;;;;;;;;;16.10;99.90;;;;;;5113810;28;20325;-83
2021/08/04 02:17:13;;;;;;;;;;;16.10;99.90;;;;;;5113523;28;19962;-84
2021/08/04 02:20:11;;;;;;;;;;;16.10;99.90;;;;;;5113252;28;19908;-85
2021/08/04 02:22:50;;;;;;;;;;;16.10;99.90;;;;;;5079638;28;20398;-84
2021/08/04 02:25:20;;;;;;;;;;;16.10;99.90;;;;;;5113263;28;19918;-83
2021/08/04 02:27:47;;;;;;;;;;;16.10;99.90;;;;;;5115002;28;20167;-83
2021/08/04 02:30:14;;;;;;;;;;;16.20;99.90;;;;;;5112749;28;19961;-84
2021/08/04 02:32:40;;;;;;;;;;;16.20;99.90;;;;;;5115004;28;19908;-84
2021/08/04 02:35:06;;;;;;;;;;;16.10;99.90;;;;;;5113535;28;19954;-82
2021/08/04 02:37:33;;;;;;;;;;;16.10;99.90;;;;;;5114532;28;19954;-84
2021/08/04 02:39:58;;;;;;;;;;;16.10;99.90;;;;;;5114074;28;19915;-84
2021/08/04 02:42:24;;;;;;;;;;;16.10;99.90;;;;;;5113126;28;19908;-84
2021/08/04 02:44:50;;;;;;;;;;;16.20;99.90;;;;;;5112573;28;19912;-84
2021/08/04 02:47:16;;;;;;;;;;;16.10;99.90;;;;;;5112779;28;19915;-84
2021/08/04 02:49:41;;;;;;;;;;;16.10;99.90;;;;;;5114195;28;19908;-83
2021/08/04 02:52:09;;;;;;;;;;;16.10;99.90;;;;;;5113977;28;19907;-84
2021/08/04 02:54:35;;;;;;;;;;;16.10;99.90;;;;;;5112777;28;19914;-84
2021/08/04 02:57:00;;;;;;;;;;;16.10;99.90;;;;;;5114324;28;20295;-84
2021/08/04 02:59:26;;;;;;;;;;;16.10;99.90;;;;;;5113492;28;19907;-85
2021/08/04 03:01:51;;;;;;;;;;;16.10;99.90;;;;;;5112380;28;19908;-83
2021/08/04 03:04:17;;;;;;;;;;;16.10;99.90;;;;;;5112693;28;19920;-84
2021/08/04 03:06:42;;;;;;;;;;;16.00;99.90;;;;;;5114979;28;19947;-84
2021/08/04 03:09:08;;;;;;;;;;;16.00;99.90;;;;;;5112981;28;20437;-83
2021/08/04 03:11:33;;;;;;;;;;;16.00;99.90;;;;;;5113729;28;19908;-84
2021/08/04 03:13:59;;;;;;;;;;;16.00;99.90;;;;;;5113625;28;20372;-84
2021/08/04 03:16:24;;;;;;;;;;;16.00;99.90;;;;;;5112543;28;20008;-84
2021/08/04 03:18:50;;;;;;;;;;;16.00;99.90;;;;;;5113570;28;19922;-83
2021/08/04 03:21:15;;;;;;;;;;;15.90;99.90;;;;;;5113577;28;19908;-84
2021/08/04 03:23:41;;;;;;;;;;;16.00;99.90;;;;;;5114118;28;19912;-84
2021/08/04 03:26:06;;;;;;;;;;;15.90;99.90;;;;;;5113592;28;19908;-84
2021/08/04 03:28:32;;;;;;;;;;;15.90;99.90;;;;;;5112421;28;19950;-84
2021/08/04 03:30:57;;;;;;;;;;;15.90;99.90;;;;;;5111992;28;20291;-81
2021/08/04 03:33:23;;;;;;;;;;;15.80;99.90;;;;;;5113647;28;19914;-81
2021/08/04 03:35:48;;;;;;;;;;;15.80;99.90;;;;;;5114075;28;19907;-84
2021/08/04 03:38:14;;;;;;;;;;;15.80;99.90;;;;;;5114008;28;20006;-84
2021/08/04 03:40:39;;;;;;;;;;;15.80;99.90;;;;;;5113301;28;19981;-84
2021/08/04 03:43:05;;;;;;;;;;;15.80;99.90;;;;;;5112054;28;20389;-84
2021/08/04 03:45:30;;;;;;;;;;;15.70;99.90;;;;;;5113032;28;19911;-85
2021/08/04 03:47:56;;;;;;;;;;;15.70;99.90;;;;;;5113873;28;19907;-84
2021/08/04 03:50:21;;;;;;;;;;;15.70;99.90;;;;;;5112539;28;19961;-83
2021/08/04 03:52:47;;;;;;;;;;;15.70;99.90;;;;;;5116379;28;19912;-84
2021/08/04 03:55:13;;;;;;;;;;;15.70;99.90;;;;;;5118066;28;19908;-84
2021/08/04 03:57:39;;;;;;;;;;;15.60;99.90;;;;;;5116238;28;19922;-83
2021/08/04 04:00:04;;;;;;;;;;;15.60;99.90;;;;;;5116376;28;19908;-83
2021/08/04 04:02:30;;;;;;;;;;;15.50;99.90;;;;;;5119154;28;19907;-84
2021/08/04 04:04:55;;;;;;;;;;;15.50;99.90;;;;;;5118012;28;19916;-84
2021/08/04 04:07:22;;;;;;;;;;;15.50;99.90;;;;;;5117940;28;20303;-83
2021/08/04 04:09:47;;;;;;;;;;;15.50;99.90;;;;;;5116254;28;19911;-84
2021/08/04 04:12:13;;;;;;;;;;;15.50;99.90;;;;;;5116367;28;19915;-84
2021/08/04 04:14:38;;;;;;;;;;;15.50;99.90;;;;;;5116802;28;19976;-84
2021/08/04 04:17:04;;;;;;;;;;;15.50;99.90;;;;;;5118246;27;20309;-84
2021/08/04 04:19:29;;;;;;;;;;;15.40;99.90;;;;;;5117824;28;20387;-84
2021/08/04 04:21:55;;;;;;;;;;;15.40;99.90;;;;;;5118249;28;19908;-83
2021/08/04 04:24:20;;;;;;;;;;;15.50;99.90;;;;;;5116831;28;19912;-85
2021/08/04 04:26:46;;;;;;;;;;;15.50;99.90;;;;;;5116175;28;19908;-84
2021/08/04 04:29:11;;;;;;;;;;;15.60;99.90;;;;;;5115876;28;20012;-83
2021/08/04 04:31:37;;;;;;;;;;;15.50;99.90;;;;;;5118079;28;19912;-84
2021/08/04 04:34:03;;;;;;;;;;;15.50;99.90;;;;;;5118144;28;19915;-85
2021/08/04 04:36:28;;;;;;;;;;;15.50;99.90;;;;;;5118186;28;19915;-84
2021/08/04 04:38:54;;;;;;;;;;;15.50;99.90;;;;;;5117411;28;19908;-83
2021/08/04 04:41:19;;;;;;;;;;;15.50;99.90;;;;;;5116567;28;20033;-83
2021/08/04 04:43:45;;;;;;;;;;;15.50;99.90;;;;;;5117581;28;20002;-84
2021/08/04 04:46:11;;;;;;;;;;;15.50;99.90;;;;;;5116122;28;20419;-85
2021/08/04 04:48:36;;;;;;;;;;;15.60;99.90;;;;;;5116945;28;19969;-84
2021/08/04 04:51:02;;;;;;;;;;;15.60;99.90;;;;;;5115704;28;19907;-83
2021/08/04 04:53:27;;;;;;;;;;;15.60;99.90;;;;;;5118078;28;19919;-85
2021/08/04 04:55:53;;;;;;;;;;;15.60;99.90;;;;;;5116430;28;20447;-84
2021/08/04 04:58:19;;;;;;;;;;;15.70;99.90;;;;;;5116969;28;19912;-84
2021/08/04 05:00:44;;;;;;;;;;;15.70;99.90;;;;;;5117445;28;20368;-84
2021/08/04 05:03:10;;;;;;;;;;;15.60;99.90;;;;;;5118213;27;19915;-84
2021/08/04 05:05:35;;;;;;;;;;;15.70;99.90;;;;;;5116078;28;19916;-85
2021/08/04 05:08:01;;;;;;;;;;;15.70;99.90;;;;;;5116356;28;19907;-84
2021/08/04 05:10:26;;;;;;;;;;;15.70;99.90;;;;;;5116246;28;20043;-84
2021/08/04 05:12:52;;;;;;;;;;;15.70;99.90;;;;;;5115231;28;19939;-84
2021/08/04 05:15:17;;;;;;;;;;;15.70;99.90;;;;;;5116206;28;19919;-84
2021/08/04 05:17:43;;;;;;;;;;;15.70;99.90;;;;;;5115569;28;19935;-84
2021/08/04 05:20:09;;;;;;;;;;;15.70;99.90;;;;;;5116145;28;19914;-84
2021/08/04 05:22:35;;;;;;;;;;;15.70;99.90;;;;;;5116745;28;19908;-83
2021/08/04 05:25:00;;;;;;;;;;;15.70;99.90;;;;;;5115226;28;19912;-84
2021/08/04 05:27:26;;;;;;;;;;;15.70;99.90;;;;;;5118241;28;20007;-84
2021/08/04 05:29:51;;;;;;;;;;;15.80;99.90;;;;;;5116515;28;20360;-83
2021/08/04 05:32:17;;;;;;;;;;;15.80;99.90;;;;;;5116547;28;19943;-84
2021/08/04 05:34:42;;;;;;;;;;;15.80;99.90;;;;;;5118449;28;20275;-84
2021/08/04 05:37:08;;;;;;;;;;;15.80;99.90;;;;;;5115202;28;20016;-83
2021/08/04 05:39:33;;;;;;;;;;;15.80;99.90;;;;;;5113717;28;19967;-83
2021/08/04 05:41:59;;;;;;;;;;;15.90;99.90;;;;;;5114091;28;19914;-84
2021/08/04 05:44:24;;;;;;;;;;;15.90;99.90;;;;;;5116136;28;20287;-84
2021/08/04 05:46:49;;;;;;;;;;;15.90;99.90;;;;;;5114871;28;20365;-84
2021/08/04 05:49:15;;;;;;;;;;;15.90;99.90;;;;;;5113798;28;19908;-84
2021/08/04 05:51:40;;;;;;;;;;;15.90;99.90;;;;;;5114557;28;19912;-84
2021/08/04 05:54:06;;;;;;;;;;;16.00;99.90;;;;;;5115071;28;20288;-81
2021/08/04 05:56:31;;;;;;;;;;;16.00;99.90;;;;;;5116790;28;19915;-81
2021/08/04 05:58:57;;;;;;;;;;;16.10;99.90;;;;;;5114629;28;20044;-81
2021/08/04 06:01:22;;;;;;;;;;;16.10;99.90;;;;;;5116290;28;19908;-84
2021/08/04 06:03:48;;;;;;;;;;;16.20;99.90;;;;;;5113962;28;19923;-84
2021/08/04 06:06:13;;;;;;;;;;;16.20;99.90;;;;;;5113841;28;20280;-84
2021/08/04 06:08:39;;;;;;;;;;;16.20;99.90;;;;;;5114442;28;19947;-84
2021/08/04 06:11:04;;;;;;;;;;;16.30;99.90;;;;;;5113917;28;19908;-84
2021/08/04 06:13:30;;;;;;;;;;;16.30;99.90;;;;;;5113352;28;19911;-84
2021/08/04 06:15:56;;;;;;;;;;;16.40;99.90;;;;;;5115259;28;19908;-83
2021/08/04 06:18:21;;;;;;;;;;;16.30;99.90;;;;;;5115056;28;19908;-84
2021/08/04 06:20:47;;;;;;;;;;;16.40;99.90;;;;;;5113496;28;20006;-83
2021/08/04 06:23:12;;;;;;;;;;;16.40;99.90;;;;;;5115570;28;19912;-83
2021/08/04 06:25:38;;;;;;;;;;;16.40;99.90;;;;;;5115519;28;19912;-83
2021/08/04 06:28:04;;;;;;;;;;;16.40;99.90;;;;;;5115472;28;19958;-83
2021/08/04 06:30:29;;;;;;;;;;;16.40;99.90;;;;;;5114867;28;19912;-83
2021/08/04 06:32:55;;;;;;;;;;;16.40;99.90;;;;;;5113768;27;20004;-83
2021/08/04 06:35:20;;;;;;;;;;;16.50;99.90;;;;;;5116325;28;20400;-83
2021/08/04 06:37:46;;;;;;;;;;;16.40;99.90;;;;;;5113550;28;19914;-83
2021/08/04 06:40:12;;;;;;;;;;;16.40;99.90;;;;;;5114735;28;19908;-83
2021/08/04 06:42:37;;;;;;;;;;;16.40;99.90;;;;;;5114713;27;19919;-83
2021/08/04 06:45:03;;;;;;;;;;;16.50;99.90;;;;;;5113231;28;19919;-83
2021/08/04 06:47:28;;;;;;;;;;;16.50;99.90;;;;;;5114848;28;20399;-83
2021/08/04 06:49:54;;;;;;;;;;;16.50;99.90;;;;;;5112544;28;19914;-83
2021/08/04 06:52:19;;;;;;;;;;;16.60;99.90;;;;;;5113359;28;19912;-83
2021/08/04 06:54:45;;;;;;;;;;;16.50;99.90;;;;;;5113711;28;19993;-83
2021/08/04 06:57:10;;;;;;;;;;;16.60;99.90;;;;;;5113183;28;20431;-83
2021/08/04 06:59:38;;;;;;;;;;;16.60;99.90;;;;;;5113818;28;19933;-83
2021/08/04 07:02:04;;;;;;;;;;;16.60;99.90;;;;;;5112878;28;20196;-83
2021/08/04 07:04:30;;;;;;;;;;;16.60;99.90;;;;;;5114254;28;19938;-84
2021/08/04 07:06:56;;;;;;;;;;;16.70;99.90;;;;;;5114597;28;19914;-83
2021/08/04 07:09:22;;;;;;;;;;;16.70;99.90;;;;;;5112196;28;19920;-83
2021/08/04 07:11:47;;;;;;;;;;;16.70;99.90;;;;;;5113746;28;19965;-83
2021/08/04 07:14:13;;;;;;;;;;;16.80;99.90;;;;;;5112447;28;19907;-83
2021/08/04 07:16:38;;;;;;;;;;;16.80;99.90;;;;;;5113972;28;19914;-84
2021/08/04 07:19:04;;;;;;;;;;;16.80;99.90;;;;;;5112093;28;20311;-83
2021/08/04 07:21:29;;;;;;;;;;;16.80;99.90;;;;;;5113736;28;19992;-83
2021/08/04 07:23:55;;;;;;;;;;;16.80;99.90;;;;;;5113798;28;20002;-83
2021/08/04 07:26:21;;;;;;;;;;;16.90;99.90;;;;;;5115860;28;19915;-83
2021/08/04 07:28:46;;;;;;;;;;;16.90;99.90;;;;;;5116730;28;19998;-83
2021/08/04 07:31:12;;;;;;;;;;;17.00;99.90;;;;;;5118338;28;19928;-83
2021/08/04 07:33:37;;;;;;;;;;;17.00;99.90;;;;;;5117493;28;19919;-83
2021/08/04 07:36:04;;;;;;;;;;;17.00;99.90;;;;;;5118809;27;20384;-83
2021/08/04 07:38:30;;;;;;;;;;;17.10;99.90;;;;;;5117899;28;20271;-83
2021/08/04 07:40:58;;;;;;;;;;;17.10;99.90;;;;;;5116441;28;19914;-83
2021/08/04 07:43:23;;;;;;;;;;;17.20;99.90;;;;;;5117237;28;19907;-84
2021/08/04 07:45:49;;;;;;;;;;;17.20;99.90;;;;;;5118636;28;19914;-83
2021/08/04 07:48:14;;;;;;;;;;;17.20;99.90;;;;;;5118794;28;19915;-83
2021/08/04 07:50:40;;;;;;;;;;;17.30;99.90;;;;;;5117814;28;19907;-83
2021/08/04 07:53:05;;;;;;;;;;;17.30;99.90;;;;;;5117171;28;19912;-83
2021/08/04 07:55:31;;;;;;;;;;;17.40;99.90;;;;;;5118880;28;20443;-83
2021/08/04 07:57:56;;;;;;;;;;;17.40;99.90;;;;;;5116327;28;19911;-83
2021/08/04 08:00:22;;;;;;;;;;;17.40;99.90;;;;;;5118234;28;19908;-83
2021/08/04 08:02:47;;;;;;;;;;;17.50;99.90;;;;;;5117001;28;19915;-83
2021/08/04 08:05:13;;;;;;;;;;;17.50;99.90;;;;;;5116193;28;20150;-83
2021/08/04 08:07:45;;;;;;;;;;;17.60;99.90;;;;;;5117944;28;19908;-83
2021/08/04 08:10:11;;;;;;;;;;;17.60;99.90;;;;;;5117028;28;19915;-83
2021/08/04 08:12:37;;;;;;;;;;;17.70;99.90;;;;;;5117724;28;19911;-83
2021/08/04 08:15:02;;;;;;;;;;;17.70;99.90;;;;;;5117055;28;20002;-83
2021/08/04 08:17:28;;;;;;;;;;;17.70;99.90;;;;;;5116037;28;19908;-83
2021/08/04 08:19:53;;;;;;;;;;;17.70;99.90;;;;;;5115670;28;19966;-83
2021/08/04 08:22:19;;;;;;;;;;;17.70;99.90;;;;;;5117806;28;20015;-84
2021/08/04 08:24:44;;;;;;;;;;;17.70;99.90;;;;;;5117431;28;19912;-83
2021/08/04 08:27:10;;;;;;;;;;;17.70;99.90;;;;;;5118345;28;19908;-84
2021/08/04 08:29:35;;;;;;;;;;;17.70;99.90;;;;;;5118890;28;19947;-84
2021/08/04 08:32:01;;;;;;;;;;;17.80;99.60;;;;;;5116061;28;19943;-84
2021/08/04 08:34:26;;;;;;;;;;;17.80;99.20;;;;;;5116523;28;20306;-83
2021/08/04 08:36:52;;;;;;;;;;;17.90;98.90;;;;;;5115775;28;19908;-83
2021/08/04 08:39:18;;;;;;;;;;;17.90;98.40;;;;;;5115109;28;19912;-83
2021/08/04 08:41:45;;;;;;;;;;;17.90;98.60;;;;;;5117622;28;19915;-83
2021/08/04 08:44:11;;;;;;;;;;;18.00;99.10;;;;;;5117135;28;19911;-83
2021/08/04 08:46:37;;;;;;;;;;;18.00;98.80;;;;;;5116929;27;19908;-83
2021/08/04 08:49:04;;;;;;;;;;;18.00;98.50;;;;;;5114670;28;20073;-83
2021/08/04 08:51:30;;;;;;;;;;;18.00;98.60;;;;;;5115845;28;20002;-83
2021/08/04 08:53:55;;;;;;;;;;;18.00;98.60;;;;;;5115761;28;19943;-83
2021/08/04 08:56:21;;;;;;;;;;;18.00;98.70;;;;;;5115435;28;19908;-83
2021/08/04 08:58:48;;;;;;;;;;;18.10;98.70;;;;;;5117910;28;19912;-83
2021/08/04 09:01:14;;;;;;;;;;;18.10;99.10;;;;;;5117026;27;19908;-83
2021/08/04 09:03:39;;;;;;;;;;;18.20;98.40;;;;;;5115680;28;20321;-83
2021/08/04 09:06:05;;;;;;;;;;;18.20;98.20;;;;;;5116093;28;19908;-84
2021/08/04 09:08:35;;;;;;;;;;;18.30;98.00;;;;;;5115575;28;19915;-83
2021/08/04 09:11:18;;;;;;;;;;;18.30;97.90;;;;;;5116746;28;19908;-84
2021/08/04 09:13:45;;;;;;;;;;;18.30;97.70;;;;;;5116070;28;19912;-84
2021/08/04 09:16:11;;;;;;;;;;;18.30;97.70;;;;;;5116422;28;20464;-84
2021/08/04 09:18:41;;;;;;;;;;;18.30;97.70;;;;;;5115611;28;20389;-83
2021/08/04 09:21:07;;;;;;;;;;;18.40;97.10;;;;;;5117145;28;19953;-83
2021/08/04 09:23:38;;;;;;;;;;;18.40;97.10;;;;;;5115252;28;20431;-83
2021/08/04 09:26:05;;;;;;;;;;;18.40;96.60;;;;;;5115608;28;20360;-84
2021/08/04 09:28:31;;;;;;;;;;;18.50;96.90;;;;;;5117016;28;20423;-84
2021/08/04 09:31:01;;;;;;;;;;;18.50;96.80;;;;;;5116377;28;19947;-84
2021/08/04 09:33:26;;;;;;;;;;;18.50;96.60;;;;;;5115122;28;19916;-84
2021/08/04 09:35:56;;;;;;;;;;;18.50;96.60;;;;;;5115401;28;20001;-84
2021/08/04 09:38:23;;;;;;;;;;;18.50;96.10;;;;;;5116762;28;19916;-83
2021/08/04 09:41:07;;;;;;;;;;;18.60;95.90;;;;;;5115673;28;19930;-84
2021/08/04 09:43:33;;;;;;;;;;;18.60;95.70;;;;;;5114642;28;19907;-83
2021/08/04 09:45:58;;;;;;;;;;;18.70;95.80;;;;;;5115232;28;20018;-84
2021/08/04 09:48:25;;;;;;;;;;;18.80;95.80;;;;;;5113488;28;19998;-83
2021/08/04 09:50:59;;;;;;;;;;;18.80;95.40;;;;;;5115316;28;19908;-84
2021/08/04 09:53:35;;;;;;;;;;;18.90;95.50;;;;;;5114231;28;19915;-84
2021/08/04 09:56:14;;;;;;;;;;;18.90;95.60;;;;;;5114473;28;19907;-84
2021/08/04 09:58:41;;;;;;;;;;;19.00;95.70;;;;;;5113726;28;19915;-83
2021/08/04 10:01:10;;;;;;;;;;;18.90;95.30;;;;;;5113228;28;20053;-83
2021/08/04 10:03:35;;;;;;;;;;;19.00;94.40;;;;;;5114489;28;19955;-84
2021/08/04 10:06:01;;;;;;;;;;;19.10;94.60;;;;;;5116105;28;20000;-83
2021/08/04 10:08:27;;;;;;;;;;;19.10;94.80;;;;;;5114895;28;19908;-83
2021/08/04 10:10:53;;;;;;;;;;;19.10;95.00;;;;;;5114909;28;20474;-84
2021/08/04 10:13:20;;;;;;;;;;;19.10;94.90;;;;;;5115150;28;20375;-83
2021/08/04 10:15:47;;;;;;;;;;;19.20;94.90;;;;;;5113736;28;19907;-83
2021/08/04 10:18:36;;;;;;;;;;;19.20;94.70;;;;;;5114984;28;20374;-83
2021/08/04 10:21:04;;;;;;;;;;;19.20;94.50;;;;;;5105028;28;19907;-83
2021/08/04 10:23:31;;;;;;;;;;;19.30;94.60;;;;;;5115487;28;19942;-84
2021/08/04 10:25:57;;;;;;;;;;;19.30;94.40;;;;;;5113670;28;19907;-83
2021/08/04 10:28:24;;;;;;;;;;;19.30;94.30;;;;;;5114595;28;20249;-83
2021/08/04 10:30:49;;;;;;;;;;;19.30;94.50;;;;;;5114015;28;19914;-84
2021/08/04 10:33:15;;;;;;;;;;;19.30;94.30;;;;;;5116828;28;19975;-84
2021/08/04 10:35:42;;;;;;;;;;;19.30;94.30;;;;;;5116525;28;19908;-84
2021/08/04 10:38:15;;;;;;;;;;;19.20;94.40;;;;;;5116023;28;19935;-84
2021/08/04 10:40:41;;;;;;;;;;;19.20;94.60;;;;;;5115617;28;19950;-84
2021/08/04 10:43:06;;;;;;;;;;;19.20;94.90;;;;;;5116102;28;19908;-84
2021/08/04 10:45:33;;;;;;;;;;;19.10;94.80;;;;;;5116365;28;19911;-83
2021/08/04 10:48:18;;;;;;;;;;;19.20;94.80;;;;;;5117783;28;19919;-84
2021/08/04 10:51:02;;;;;;;;;;;19.20;94.50;;;;;;5115670;28;19915;-83
2021/08/04 10:53:28;;;;;;;;;;;19.20;94.40;;;;;;5116648;28;19975;-83
2021/08/04 10:55:54;;;;;;;;;;;19.20;94.70;;;;;;5115593;28;19939;-84
2021/08/04 10:58:20;;;;;;;;;;;19.20;95.00;;;;;;5115838;28;20384;-83
2021/08/04 11:00:46;;;;;;;;;;;19.20;94.80;;;;;;5116565;28;19915;-84
2021/08/04 11:03:30;;;;;;;;;;;19.20;94.60;;;;;;5115130;28;20395;-83
2021/08/04 11:06:02;;;;;;;;;;;19.20;94.70;;;;;;5115749;28;19980;-83
2021/08/04 11:08:27;;;;;;;;;;;19.20;94.40;;;;;;5116603;28;19911;-84
2021/08/04 11:10:53;;;;;;;;;;;19.30;94.10;;;;;;5114518;28;19914;-83
2021/08/04 11:13:49;;;;;;;;;;;19.30;94.00;;;;;;5114741;28;19911;-84
2021/08/04 11:16:24;;;;;;;;;;;19.50;93.50;;;;;;5101091;28;19959;-83
2021/08/04 11:19:19;;;;;;;;;;;19.50;93.60;;;;;;5114893;28;20092;-83
2021/08/04 11:22:04;;;;;;;;;;;19.50;94.00;;;;;;5099787;28;19995;-83
2021/08/04 11:24:49;;;;;;;;;;;19.50;94.30;;;;;;5112667;28;19908;-83
2021/08/04 11:27:14;;;;;;;;;;;19.50;94.50;;;;;;5113072;28;19917;-83
2021/08/04 11:29:44;;;;;;;;;;;19.60;94.30;;;;;;5112649;28;20280;-83
2021/08/04 11:32:16;;;;;;;;;;;19.70;94.40;;;;;;5112505;28;19914;-83
2021/08/04 11:34:41;;;;;;;;;;;19.80;94.40;;;;;;5112661;28;19982;-83
2021/08/04 11:37:07;;;;;;;;;;;19.80;93.40;;;;;;5113034;28;20368;-83
2021/08/04 11:39:32;;;;;;;;;;;20.00;93.60;;;;;;5113647;28;19953;-83
2021/08/04 11:42:05;;;;;;;;;;;20.00;93.80;;;;;;5114261;28;19908;-84
2021/08/04 11:44:30;;;;;;;;;;;20.00;93.80;;;;;;5112883;28;20263;-83
2021/08/04 11:47:08;;;;;;;;;;;20.10;93.20;;;;;;5112765;28;19919;-83
2021/08/04 11:49:34;;;;;;;;;;;20.10;92.60;;;;;;5111837;28;19954;-83
2021/08/04 11:52:04;;;;;;;;;;;20.10;92.90;;;;;;5112599;28;19915;-81
2021/08/04 11:54:35;;;;;;;;;;;20.10;92.60;;;;;;5114029;28;19919;-83
2021/08/04 11:57:00;;;;;;;;;;;20.10;92.40;;;;;;5112856;28;20010;-83
2021/08/04 11:59:26;;;;;;;;;;;20.10;91.90;;;;;;5113773;28;20000;-83
2021/08/04 12:01:55;;;;;;;;;;;20.10;91.70;;;;;;5114035;28;19915;-83
2021/08/04 12:04:21;;;;;;;;;;;20.00;92.10;;;;;;5112777;28;19916;-83
2021/08/04 12:07:16;;;;;;;;;;;19.90;92.20;;;;;;5113070;28;19965;-83
2021/08/04 12:09:42;;;;;;;;;;;19.90;92.00;;;;;;5104648;28;20376;-83
2021/08/04 12:12:15;;;;;;;;;;;19.90;91.70;;;;;;5114719;28;19950;-83
2021/08/04 12:14:41;;;;;;;;;;;19.80;91.40;;;;;;5116604;28;19912;-83
2021/08/04 12:17:07;;;;;;;;;;;19.80;91.80;;;;;;5117442;28;19911;-83
2021/08/04 12:19:36;;;;;;;;;;;19.70;92.10;;;;;;5115895;28;19908;-83
2021/08/04 12:22:02;;;;;;;;;;;19.60;92.60;;;;;;5116326;28;19908;-83
2021/08/04 12:24:27;;;;;;;;;;;19.60;92.90;;;;;;5116408;28;19918;-83
2021/08/04 12:26:53;;;;;;;;;;;19.60;93.20;;;;;;5116259;28;19908;-83
2021/08/04 12:29:26;;;;;;;;;;;19.50;93.30;;;;;;5117230;28;19970;-83
2021/08/04 12:32:12;;;;;;;;;;;19.50;93.40;;;;;;5116376;28;19908;-83
2021/08/04 12:34:42;;;;;;;;;;;19.50;93.40;;;;;;5116290;28;20014;-83
2021/08/04 12:37:08;;;;;;;;;;;19.50;93.40;;;;;;5116134;28;19911;-83
2021/08/04 12:39:34;;;;;;;;;;;19.60;93.40;;;;;;5116664;28;20002;-83
2021/08/04 12:41:59;;;;;;;;;;;19.60;93.20;;;;;;5117930;28;19966;-83
2021/08/04 12:44:25;;;;;;;;;;;19.60;92.90;;;;;;5117350;28;19968;-83
2021/08/04 12:46:50;;;;;;;;;;;19.70;92.80;;;;;;5115835;28;19908;-83
2021/08/04 12:49:17;;;;;;;;;;;19.80;92.70;;;;;;5115133;28;20436;-83
2021/08/04 12:51:58;;;;;;;;;;;19.80;92.40;;;;;;5115407;28;19915;-83
2021/08/04 12:54:31;;;;;;;;;;;19.90;92.40;;;;;;5117033;28;19918;-83
2021/08/04 12:56:57;;;;;;;;;;;19.90;92.10;;;;;;5117064;28;19912;-83
2021/08/04 12:59:23;;;;;;;;;;;20.00;91.80;;;;;;5114553;28;19915;-83
2021/08/04 13:02:05;;;;;;;;;;;20.00;91.70;;;;;;5115293;28;19947;-83
2021/08/04 13:04:30;;;;;;;;;;;20.00;91.70;;;;;;5115767;28;20306;-83
2021/08/04 13:06:56;;;;;;;;;;;20.10;91.70;;;;;;5116489;28;19908;-83
2021/08/04 13:09:23;;;;;;;;;;;20.10;91.90;;;;;;5115158;28;19908;-83
2021/08/04 13:11:51;;;;;;;;;;;20.10;91.70;;;;;;5117671;28;20002;-83
2021/08/04 13:14:16;;;;;;;;;;;20.20;91.70;;;;;;5116393;28;19944;-83
2021/08/04 13:16:43;;;;;;;;;;;20.20;91.80;;;;;;5117619;28;19915;-83
2021/08/04 13:19:22;;;;;;;;;;;20.30;91.40;;;;;;5116435;28;19919;-83
2021/08/04 13:22:16;;;;;;;;;;;20.30;91.20;;;;;;5115687;28;20438;-83
2021/08/04 13:24:44;;;;;;;;;;;20.30;91.20;;;;;;5106756;28;19908;-83
2021/08/04 13:27:29;;;;;;;;;;;20.40;91.10;;;;;;5114552;28;20370;-83
2021/08/04 13:30:13;;;;;;;;;;;20.40;91.00;;;;;;5114685;28;19914;-83
2021/08/04 13:32:38;;;;;;;;;;;20.40;91.20;;;;;;5116295;28;19912;-83
2021/08/04 13:35:04;;;;;;;;;;;20.40;91.20;;;;;;5115976;28;19919;-83
2021/08/04 13:37:29;;;;;;;;;;;20.40;90.90;;;;;;5116370;27;20014;-83
2021/08/04 13:39:55;;;;;;;;;;;20.40;91.00;;;;;;5115692;28;19915;-83
2021/08/04 13:42:20;;;;;;;;;;;20.50;90.50;;;;;;5116579;28;19989;-83
2021/08/04 13:44:46;;;;;;;;;;;20.60;90.00;;;;;;5114985;28;19914;-83
2021/08/04 13:47:11;;;;;;;;;;;20.70;89.40;;;;;;5115232;28;19958;-83
2021/08/04 13:49:37;;;;;;;;;;;20.70;90.00;;;;;;5115283;28;19957;-83
2021/08/04 13:52:03;;;;;;;;;;;20.70;90.20;;;;;;5115625;28;19915;-83
2021/08/04 13:54:29;;;;;;;;;;;20.60;90.60;;;;;;5115911;28;19919;-83
2021/08/04 13:56:55;;;;;;;;;;;20.60;91.00;;;;;;5115818;28;19908;-83
2021/08/04 13:59:20;;;;;;;;;;;20.70;90.90;;;;;;5115532;28;19908;-83
2021/08/04 14:01:46;;;;;;;;;;;20.80;91.10;;;;;;5114286;28;19908;-83
2021/08/04 14:04:11;;;;;;;;;;;20.90;91.90;;;;;;5115589;28;20366;-83
2021/08/04 14:06:37;;;;;;;;;;;21.10;92.50;;;;;;5115959;28;19912;-83
2021/08/04 14:09:02;;;;;;;;;;;21.20;92.60;;;;;;5113802;28;19961;-83
2021/08/04 14:11:28;;;;;;;;;;;21.20;93.00;;;;;;5115439;28;20279;-83
2021/08/04 14:13:55;;;;;;;;;;;21.20;93.10;;;;;;5113888;28;19912;-83
2021/08/04 14:16:21;;;;;;;;;;;21.20;93.00;;;;;;5114095;28;20386;-83
2021/08/04 14:18:46;;;;;;;;;;;21.10;93.00;;;;;;5115151;28;19907;-83